Time;durP1;ratioP1;P1;durP2;ratioP2;P2;SDS_P1;SDS_P2;PMS_P1;PMS_P2;Temp;Humidity;BMP_temperature;BMP_pressure;BME280_temperature;BME280_humidity;BME280_pressure;Samples;Min_cycle;Max_cycle;Signal;HPM_P1;HPM_P2
2023/02/24 00:01:40;;;;;;;35.92;17.52;;;;;;;8.85;100.00;100084.81;5069858;28;20146;-81
2023/02/24 00:04:11;;;;;;;30.10;16.65;;;;;;;8.94;100.00;100092.34;5071957;28;20051;-81
2023/02/24 00:06:42;;;;;;;29.38;16.45;;;;;;;7.87;100.00;99914.97;5072589;28;20056;-81
2023/02/24 00:09:12;;;;;;;32.00;16.48;;;;;;;8.72;100.00;100064.25;5072147;28;20139;-82
2023/02/24 00:11:43;;;;;;;33.22;16.63;;;;;;;8.74;100.00;100070.31;5069878;28;20061;-81
2023/02/24 00:14:23;;;;;;;33.60;17.13;;;;;;;8.23;100.00;99991.63;5073090;28;20170;-82
2023/02/24 00:16:51;;;;;;;31.10;17.13;;;;;;;8.23;100.00;99990.75;5071707;28;20505;-82
2023/02/24 00:19:22;;;;;;;33.42;16.50;;;;;;;8.43;100.00;100019.81;5072813;28;20165;-84
2023/02/24 00:21:50;;;;;;;32.08;15.75;;;;;;;7.81;100.00;99931.06;5071529;28;20382;-83
2023/02/24 00:24:18;;;;;;;30.48;16.58;;;;;;;7.10;100.00;99799.78;5072411;28;20048;-83
2023/02/24 00:26:47;;;;;;;32.88;16.55;;;;;;;8.45;100.00;100041.72;5071787;28;20118;-82
2023/02/24 00:29:13;;;;;;;33.35;16.50;;;;;;;8.70;100.00;100071.38;5067436;28;20045;-83
2023/02/24 00:31:41;;;;;;;31.70;16.83;;;;;;;8.68;100.00;100078.50;5072029;28;20064;-85
2023/02/24 00:34:11;;;;;;;33.55;17.27;;;;;;;8.45;100.00;100039.06;5071912;28;20063;-80
2023/02/24 00:36:38;;;;;;;32.13;16.83;;;;;;;8.68;100.00;100070.56;5072048;28;20056;-82
2023/02/24 00:39:10;;;;;;;27.90;14.55;;;;;;;7.73;100.00;99898.91;5072826;28;20075;-82
2023/02/24 00:41:42;;;;;;;32.40;16.05;;;;;;;8.71;100.00;100073.09;5067283;28;20062;-82
2023/02/24 00:44:12;;;;;;;29.77;15.63;;;;;;;8.69;100.00;100048.53;5067776;28;20044;-82
2023/02/24 00:46:41;;;;;;;28.13;15.23;;;;;;;8.73;100.00;100063.31;5068175;28;20181;-82
2023/02/24 00:49:15;;;;;;;27.83;14.55;;;;;;;8.68;100.00;100038.03;5072260;28;20040;-82
2023/02/24 00:51:48;;;;;;;26.77;13.25;;;;;;;8.72;100.00;100037.84;5068739;28;20147;-82
2023/02/24 00:54:15;;;;;;;26.63;14.38;;;;;;;8.60;100.00;100027.84;5072478;28;20076;-82
2023/02/24 00:56:44;;;;;;;27.25;13.50;;;;;;;8.16;100.00;99958.53;5069520;28;20155;-83
2023/02/24 00:59:13;;;;;;;28.65;14.90;;;;;;;8.64;100.00;100041.75;5043314;28;20068;-81
2023/02/24 01:01:42;;;;;;;29.25;14.50;;;;;;;8.61;100.00;100040.13;5047714;28;20504;-83
2023/02/24 01:04:12;;;;;;;25.92;13.20;;;;;;;8.34;100.00;99994.66;5071183;28;20052;-80
2023/02/24 01:06:58;;;;;;;25.85;13.70;;;;;;;8.62;100.00;100036.56;5068292;28;20114;-83
2023/02/24 01:09:28;;;;;;;24.77;13.38;;;;;;;8.63;100.00;100040.91;5047998;28;20044;-81
2023/02/24 01:14:43;;;;;;;29.05;14.77;;;;;;;8.22;100.00;99974.09;5071738;28;20123;-80
2023/02/24 01:17:11;;;;;;;28.50;13.93;;;;;;;8.54;100.00;100036.00;5071234;28;20156;-81
2023/02/24 01:19:37;;;;;;;32.22;14.43;;;;;;;8.14;100.00;99970.09;5065449;28;20068;-82
2023/02/24 01:22:08;;;;;;;28.02;14.15;;;;;;;8.40;100.00;100015.53;5074313;28;20132;-80
2023/02/24 01:24:38;;;;;;;28.10;13.68;;;;;;;7.84;100.00;99923.03;5087008;28;20044;-80
2023/02/24 01:27:05;;;;;;;26.80;13.35;;;;;;;8.09;100.00;99957.94;5090441;28;20108;-81
2023/02/24 01:29:38;;;;;;;27.15;13.82;;;;;;;7.86;100.00;99918.56;5093430;28;20054;-82
2023/02/24 01:32:06;;;;;;;26.33;12.82;;;;;;;8.20;100.00;99999.66;5087962;28;20048;-84
2023/02/24 01:34:33;;;;;;;29.08;14.15;;;;;;;7.75;100.00;99923.41;5079697;28;20056;-83
2023/02/24 01:37:01;;;;;;;27.13;12.93;;;;;;;8.33;100.00;100026.44;5078260;28;20060;-84
2023/02/24 01:39:28;;;;;;;26.55;13.05;;;;;;;7.73;100.00;99917.34;5077065;28;20048;-83
2023/02/24 01:41:55;;;;;;;26.05;13.07;;;;;;;7.68;100.00;99924.63;5077605;28;20060;-83
2023/02/24 01:44:23;;;;;;;27.20;13.07;;;;;;;8.22;100.00;100008.38;5082085;28;20059;-82
2023/02/24 01:46:55;;;;;;;23.88;11.77;;;;;;;7.19;100.00;99845.03;5077615;28;20052;-81
2023/02/24 01:49:46;;;;;;;23.25;11.70;;;;;;;6.72;100.00;99746.13;5077679;28;20041;-82
2023/02/24 01:52:19;;;;;;;24.50;11.80;;;;;;;7.70;100.00;99901.69;5056418;28;20052;-82
2023/02/24 01:54:53;;;;;;;22.08;11.20;;;;;;;6.27;100.00;99657.69;5076031;28;20052;-81
2023/02/24 01:57:23;;;;;;;23.38;11.85;;;;;;;7.21;100.00;99798.41;5076893;28;20139;-82
2023/02/24 01:59:56;;;;;;;21.52;11.35;;;;;;;7.04;100.00;99793.00;5075757;28;20045;-81
2023/02/24 02:02:23;;;;;;;25.60;12.45;;;;;;;6.92;100.00;99785.63;5076646;28;20044;-83
2023/02/24 02:04:58;;;;;;;23.48;11.45;;;;;;;8.29;100.00;99988.72;5076443;28;20109;-80
2023/02/24 02:07:27;;;;;;;23.05;11.35;;;;;;;7.17;100.00;99790.72;5075865;28;20048;-81
2023/02/24 02:09:58;;;;;;;22.48;11.25;;;;;;;7.60;100.00;99863.47;5075358;28;20503;-81
2023/02/24 02:12:27;;;;;;;21.02;11.02;;;;;;;6.68;100.00;99729.59;5075603;28;20072;-81
2023/02/24 02:14:58;;;;;;;22.75;11.68;;;;;;;7.08;100.00;99791.97;5074592;28;20493;-82
2023/02/24 02:17:30;;;;;;;21.50;11.25;;;;;;;8.25;100.00;99978.38;5074818;28;20048;-81
2023/02/24 02:20:21;;;;;;;18.27;10.40;;;;;;;8.17;100.00;99949.72;5073954;28;20056;-82
2023/02/24 02:23:10;;;;;;;21.80;11.13;;;;;;;8.39;100.00;99978.66;5074703;28;20474;-83
2023/02/24 02:26:05;;;;;;;26.55;11.40;;;;;;;8.41;100.00;99971.53;5069186;28;20049;-82
2023/02/24 02:28:47;;;;;;;22.00;10.55;;;;;;;8.41;100.00;99964.47;5069096;28;20155;-81
2023/02/24 02:31:45;;;;;;;16.92;9.05;;;;;;;8.33;100.00;99971.03;5073749;28;20049;-82
2023/02/24 02:34:27;;;;;;;18.00;9.15;;;;;;;8.39;100.00;99974.22;5075189;28;20060;-81
2023/02/24 02:37:33;;;;;;;19.65;10.65;;;;;;;8.35;100.00;99975.28;5070645;28;20146;-81
2023/02/24 02:40:18;;;;;;;18.38;10.38;;;;;;;8.31;100.00;99963.16;5052437;28;20139;-82
2023/02/24 02:43:33;;;;;;;22.05;11.23;;;;;;;8.07;100.00;99922.00;5070052;28;20067;-82
2023/02/24 02:46:13;;;;;;;20.88;10.07;;;;;;;8.04;100.00;99922.13;4975352;28;20149;-82
2023/02/24 02:48:55;;;;;;;20.02;10.38;;;;;;;7.68;100.00;99851.69;5067121;28;20425;-83
2023/02/24 02:51:29;;;;;;;21.35;10.75;;;;;;;6.49;100.00;99671.63;5071935;28;20051;-82
2023/02/24 02:54:06;;;;;;;24.52;12.23;;;;;;;8.25;100.00;99942.31;5074058;28;20060;-81
2023/02/24 02:56:45;;;;;;;27.35;13.55;;;;;;;7.80;100.00;99875.78;5074397;28;20127;-83
2023/02/24 02:59:22;;;;;;;27.02;13.73;;;;;;;7.83;100.00;99871.25;5074630;28;20048;-83
2023/02/24 03:05:45;;;;;;;32.95;16.13;;;;;;;8.39;100.00;99928.53;5071095;28;20050;-82
2023/02/24 03:08:17;;;;;;;33.65;16.17;;;;;;;8.46;100.00;99929.13;5073490;28;20139;-83
2023/02/24 03:11:02;;;;;;;34.95;17.38;;;;;;;8.24;100.00;99897.53;5073164;28;20048;-82
2023/02/24 03:13:44;;;;;;;37.72;17.52;;;;;;;7.71;100.00;99816.44;5066644;28;20425;-82
2023/02/24 03:16:13;;;;;;;34.83;16.17;;;;;;;7.20;100.00;99736.13;5069709;28;20130;-81
2023/02/24 03:18:44;;;;;;;34.33;16.75;;;;;;;8.18;100.00;99908.38;5066553;28;20074;-82
2023/02/24 03:21:16;;;;;;;34.47;16.48;;;;;;;8.28;100.00;99920.22;5072392;28;20062;-82
2023/02/24 03:23:48;;;;;;;35.22;16.27;;;;;;;7.13;100.00;99736.47;5073112;28;20086;-83
2023/02/24 03:26:24;;;;;;;34.85;16.20;;;;;;;8.21;100.00;99921.41;5074389;28;20083;-82
2023/02/24 03:29:02;;;;;;;34.25;14.90;;;;;;;7.11;100.00;99726.00;5073186;28;20060;-81
2023/02/24 03:32:23;;;;;;;35.38;15.93;;;;;;;7.53;100.00;99788.25;5052307;28;20117;-80
2023/02/24 03:35:15;;;;;;;34.88;15.73;;;;;;;7.08;100.00;99720.03;5029967;28;20129;-81
2023/02/24 03:37:48;;;;;;;37.28;15.52;;;;;;;8.19;100.00;99916.19;5068364;28;20110;-81
2023/02/24 03:40:17;;;;;;;34.95;16.20;;;;;;;8.13;100.00;99897.16;5071451;28;20079;-80
2023/02/24 03:42:51;;;;;;;33.05;15.30;;;;;;;7.44;100.00;99789.50;5072390;28;20056;-80
2023/02/24 03:45:21;;;;;;;36.55;16.52;;;;;;;7.44;100.00;99799.19;5064403;28;20052;-81
2023/02/24 03:47:55;;;;;;;35.50;15.02;;;;;;;7.96;100.00;99901.41;5073026;28;20044;-81
2023/02/24 03:50:23;;;;;;;38.45;17.00;;;;;;;6.83;100.00;99725.47;5064188;28;20047;-81
2023/02/24 03:53:10;;;;;;;38.97;17.02;;;;;;;7.65;100.00;99866.75;5071745;28;20094;-80
2023/02/24 03:55:36;;;;;;;35.53;15.40;;;;;;;7.95;100.00;99912.88;5065700;28;20052;-80
2023/02/24 03:58:12;;;;;;;34.60;16.55;;;;;;;7.38;100.00;99827.53;5071472;28;20163;-81
2023/02/24 04:01:08;;;;;;;41.28;17.73;;;;;;;7.84;100.00;99907.22;5072037;28;20044;-81
2023/02/24 04:04:21;;;;;;;38.35;15.88;;;;;;;7.79;100.00;99905.69;5066855;28;20084;-81
2023/02/24 04:07:22;;;;;;;35.70;15.90;;;;;;;7.75;100.00;99908.47;5049184;28;20059;-81
2023/02/24 04:10:11;;;;;;;37.33;16.65;;;;;;;7.06;100.00;99780.63;5066988;28;20072;-81
2023/02/24 04:12:48;;;;;;;36.17;15.95;;;;;;;7.55;100.00;99865.47;5053437;28;20060;-80
2023/02/24 04:15:23;;;;;;;36.65;16.63;;;;;;;7.55;100.00;99860.19;5072157;28;20058;-80
2023/02/24 04:17:53;;;;;;;39.40;17.30;;;;;;;7.72;100.00;99881.38;5068973;28;20048;-80
2023/02/24 04:20:26;;;;;;;37.92;16.98;;;;;;;7.23;100.00;99809.75;5071699;28;20189;-80
2023/02/24 04:22:59;;;;;;;40.33;17.17;;;;;;;7.49;100.00;99857.81;5070575;28;20535;-81
2023/02/24 04:25:26;;;;;;;48.50;19.10;;;;;;;7.36;100.00;99846.94;5066674;28;20051;-80
2023/02/24 04:27:57;;;;;;;40.60;18.35;;;;;;;7.46;100.00;99874.59;5071708;28;20044;-81
2023/02/24 04:30:26;;;;;;;;;;;;;;;7.53;100.00;99856.75;5071168;28;20118;-82
2023/02/24 04:32:52;;;;;;;45.15;18.92;;;;;;;5.86;100.00;99585.72;5071733;28;19927;-81
2023/02/24 04:35:21;;;;;;;45.38;18.75;;;;;;;7.50;100.00;99859.53;5069786;28;20052;-82
2023/02/24 04:37:51;;;;;;;42.90;18.15;;;;;;;7.48;100.00;99850.81;5070959;28;20052;-81
2023/02/24 04:40:23;;;;;;;45.95;19.20;;;;;;;6.82;100.00;99753.56;5066734;28;20098;-83
2023/02/24 04:42:51;;;;;;;44.05;19.20;;;;;;;7.16;100.00;99816.19;5066413;28;20121;-83
2023/02/24 04:45:24;;;;;;;46.28;18.85;;;;;;;5.72;100.00;99560.00;5074377;28;20040;-82
2023/02/24 04:47:55;;;;;;;48.83;19.33;;;;;;;5.76;100.00;99560.75;5075531;28;20166;-83
2023/02/24 04:50:24;;;;;;;41.83;19.23;;;;;;;7.35;100.00;99838.19;5070512;28;20072;-81
2023/02/24 04:52:53;;;;;;;44.97;19.58;;;;;;;6.74;100.00;99715.34;5078489;28;20052;-82
2023/02/24 04:55:23;;;;;;;44.17;19.15;;;;;;;7.48;100.00;99827.13;5082021;28;20094;-81
2023/02/24 04:57:53;;;;;;;41.97;18.97;;;;;;;7.42;100.00;99816.81;5081717;28;20821;-81
2023/02/24 05:00:21;;;;;;;42.50;20.23;;;;;;;6.81;100.00;99716.78;5052197;28;20116;-80
2023/02/24 05:02:49;;;;;;;43.50;18.98;;;;;;;6.43;100.00;99658.75;5074947;28;20110;-81
2023/02/24 05:05:24;;;;;;;43.50;18.48;;;;;;;7.26;100.00;99811.38;5071567;28;20049;-81
2023/02/24 05:07:55;;;;;;;40.33;18.10;;;;;;;6.69;100.00;99729.53;5068417;28;20056;-81
2023/02/24 05:10:26;;;;;;;43.80;18.42;;;;;;;7.29;100.00;99820.00;5070700;28;20453;-82
2023/02/24 05:12:56;;;;;;;40.03;18.42;;;;;;;7.21;100.00;99810.72;5053596;28;20516;-80
2023/02/24 05:15:30;;;;;;;41.03;18.83;;;;;;;6.93;100.00;99763.63;5071466;28;20062;-80
2023/02/24 05:18:06;;;;;;;42.03;19.08;;;;;;;7.16;100.00;99812.69;5071846;28;20113;-82
2023/02/24 05:23:26;;;;;;;36.80;16.80;;;;;;;6.89;100.00;99751.53;5071218;28;20052;-80
2023/02/24 05:25:53;;;;;;;41.70;18.55;;;;;;;7.13;100.00;99786.47;5071711;28;20075;-81
2023/02/24 05:28:24;;;;;;;39.80;18.27;;;;;;;6.53;100.00;99698.66;5071262;28;20140;-82
2023/02/24 05:30:55;;;;;;;42.50;18.60;;;;;;;7.20;100.00;99807.25;5071865;28;20049;-80
2023/02/24 05:33:21;;;;;;;41.22;18.13;;;;;;;6.39;100.00;99672.09;5071102;28;20072;-82
2023/02/24 05:35:52;;;;;;;41.70;18.60;;;;;;;7.00;100.00;99776.47;5064935;28;20064;-82
2023/02/24 05:38:18;;;;;;;42.83;19.08;;;;;;;6.78;100.00;99740.59;5071896;28;20048;-81
2023/02/24 05:40:46;;;;;;;39.70;18.00;;;;;;;6.96;100.00;99772.25;5072068;28;20056;-81
2023/02/24 05:43:17;;;;;;;40.20;18.63;;;;;;;6.80;100.00;99750.13;5068894;28;20174;-82
2023/02/24 05:45:44;;;;;;;41.63;18.80;;;;;;;7.10;100.00;99800.63;5072558;28;20053;-82
2023/02/24 05:48:15;;;;;;;40.92;17.98;;;;;;;6.64;100.00;99734.13;5073271;28;20155;-81
2023/02/24 05:50:51;;;;;;;40.60;18.15;;;;;;;7.10;100.00;99792.72;5064159;28;20084;-81
2023/02/24 05:53:17;;;;;;;38.00;17.63;;;;;;;6.56;100.00;99712.56;5070798;28;20090;-81
2023/02/24 05:55:44;;;;;;;40.45;18.88;;;;;;;6.42;100.00;99685.13;5085972;28;20211;-81
2023/02/24 05:58:11;;;;;;;38.10;17.65;;;;;;;7.01;100.00;99779.97;5070311;28;20052;-81
2023/02/24 06:00:38;;;;;;;40.85;18.25;;;;;;;6.98;100.00;99765.16;5084732;28;20057;-80
2023/02/24 06:03:16;;;;;;;42.03;18.40;;;;;;;7.02;100.00;99769.38;5087412;28;20044;-81
2023/02/24 06:05:43;;;;;;;37.33;17.20;;;;;;;6.82;100.00;99729.00;5086987;28;20105;-81
2023/02/24 06:08:12;;;;;;;41.28;18.25;;;;;;;6.33;100.00;99657.41;5080001;28;20044;-82
2023/02/24 06:10:39;;;;;;;37.92;17.75;;;;;;;5.57;100.00;99511.59;5070529;28;20183;-81
2023/02/24 06:13:06;;;;;;;37.60;16.83;;;;;;;7.17;100.00;99785.44;5083196;28;20041;-81
2023/02/24 06:15:36;;;;;;;40.63;18.05;;;;;;;6.83;100.00;99723.69;5082525;28;20051;-82
2023/02/24 06:18:06;;;;;;;33.47;15.88;;;;;;;7.08;100.00;99783.22;5083959;28;20482;-84
2023/02/24 06:20:33;;;;;;;38.05;16.98;;;;;;;6.47;100.00;99673.47;5080815;28;20048;-82
2023/02/24 06:23:02;;;;;;;38.03;16.08;;;;;;;6.11;100.00;99610.13;5081787;28;20072;-82
2023/02/24 06:25:32;;;;;;;39.40;17.02;;;;;;;6.62;100.00;99683.34;5083077;28;20049;-83
2023/02/24 06:28:00;;;;;;;39.22;16.85;;;;;;;6.40;100.00;99652.75;5078411;28;20048;-82
2023/02/24 06:30:27;;;;;;;38.63;16.10;;;;;;;6.58;100.00;99666.00;5076345;28;20049;-81
2023/02/24 06:32:55;;;;;;;37.60;16.75;;;;;;;6.98;100.00;99732.72;5076288;28;20080;-81
2023/02/24 06:35:22;;;;;;;37.15;16.33;;;;;;;6.90;100.00;99719.91;5076759;28;20084;-81
2023/02/24 06:37:49;;;;;;;37.10;16.98;;;;;;;7.08;100.00;99749.00;5080982;28;20086;-82
2023/02/24 06:40:16;;;;;;;38.75;17.08;;;;;;;6.94;100.00;99747.78;5076644;28;20055;-82
2023/02/24 06:42:47;;;;;;;34.90;16.60;;;;;;;6.62;100.00;99677.22;5075069;28;20075;-83
2023/02/24 06:45:30;;;;;;;33.30;15.60;;;;;;;7.30;100.00;99791.88;5076746;28;20059;-83
2023/02/24 06:47:57;;;;;;;32.55;16.02;;;;;;;7.35;100.00;99771.47;5074955;28;20048;-84
2023/02/24 06:50:27;;;;;;;39.42;16.80;;;;;;;7.43;100.00;99782.53;5075562;28;20080;-82
2023/02/24 06:52:59;;;;;;;36.15;16.73;;;;;;;6.89;100.00;99675.22;5066415;28;20435;-82
2023/02/24 06:55:27;;;;;;;37.05;16.42;;;;;;;6.81;100.00;99654.47;5074432;28;20918;-83
2023/02/24 06:57:57;;;;;;;34.00;16.58;;;;;;;7.56;100.00;99780.19;5069107;28;20652;-81
2023/02/24 07:00:37;;;;;;;39.80;18.35;;;;;;;7.22;100.00;99720.28;5068882;28;20041;-80
2023/02/24 07:03:15;;;;;;;39.55;18.77;;;;;;;7.57;100.00;99772.22;5072840;28;20055;-81
2023/02/24 07:06:09;;;;;;;37.65;18.30;;;;;;;7.00;100.00;99683.50;5055408;28;20090;-82
2023/02/24 07:08:37;;;;;;;36.67;16.90;;;;;;;5.74;100.00;99476.75;5050481;28;20052;-81
2023/02/24 07:11:05;;;;;;;39.33;17.35;;;;;;;7.45;100.00;99756.13;5073605;28;20493;-82
2023/02/24 07:13:33;;;;;;;37.67;17.75;;;;;;;7.54;100.00;99790.84;5073416;28;20551;-81
2023/02/24 07:16:05;;;;;;;38.40;18.42;;;;;;;6.81;100.00;99664.16;5073565;28;20048;-80
2023/02/24 07:18:39;;;;;;;38.65;18.40;;;;;;;7.50;100.00;99777.84;5073720;28;20053;-82
2023/02/24 07:21:15;;;;;;;41.72;20.88;;;;;;;6.41;100.00;99592.22;5073176;28;20114;-81
2023/02/24 07:23:44;;;;;;;45.58;22.05;;;;;;;7.22;100.00;99731.66;5066746;28;20079;-81
2023/02/24 07:26:17;;;;;;;43.17;22.13;;;;;;;6.37;100.00;99574.84;5072479;28;20044;-80
2023/02/24 07:28:47;;;;;;;46.85;21.73;;;;;;;5.86;100.00;99484.13;5072033;28;20040;-81
2023/02/24 07:31:17;;;;;;;47.70;23.85;;;;;;;6.98;100.00;99665.13;5071131;28;20041;-81
2023/02/24 07:33:45;;;;;;;46.20;23.67;;;;;;;7.76;100.00;99774.91;5070108;28;20522;-80
2023/02/24 07:36:14;;;;;;;49.08;22.98;;;;;;;7.69;100.00;99741.84;5071517;28;20505;-79
2023/02/24 07:38:41;;;;;;;46.95;23.42;;;;;;;6.56;100.00;99541.56;5071402;28;20121;-81
2023/02/24 07:41:10;;;;;;;51.70;23.83;;;;;;;6.39;100.00;99525.69;5071622;28;20166;-80
2023/02/24 07:43:39;;;;;;;49.08;23.48;;;;;;;6.91;100.00;99594.41;5063949;28;20135;-81
2023/02/24 07:46:10;;;;;;;47.53;23.33;;;;;;;7.84;100.00;99741.16;5071911;28;20051;-79
2023/02/24 07:48:38;;;;;;;42.40;21.27;;;;;;;7.64;100.00;99713.06;5063702;28;20106;-81
2023/02/24 07:51:16;;;;;;;45.28;23.27;;;;;;;7.15;100.00;99610.88;5067632;28;20044;-79
2023/02/24 07:53:42;;;;;;;44.45;22.70;;;;;;;7.79;100.00;99727.31;5064241;28;20076;-81
2023/02/24 07:56:12;;;;;;;45.75;22.83;;;;;;;7.88;100.00;99740.06;5071285;28;20051;-80
2023/02/24 07:58:49;;;;;;;48.25;23.73;;;;;;;7.86;100.00;99739.31;5063673;28;20167;-81
2023/02/24 08:01:23;;;;;;;43.80;22.45;;;;;;;7.68;100.00;99717.28;5070559;28;20059;-79
2023/02/24 08:03:54;;;;;;;40.90;20.77;;;;;;;7.31;100.00;99652.25;5070812;28;20109;-80
2023/02/24 08:06:26;;;;;;;53.65;22.65;;;;;;;7.04;100.00;99585.03;5069077;28;20067;-81
2023/02/24 08:08:58;;;;;;;41.03;20.45;;;;;;;7.78;100.00;99708.94;5072524;28;20051;-81
2023/02/24 08:11:37;;;;;;;41.60;21.48;;;;;;;7.94;100.00;99731.88;5071370;28;20102;-79
2023/02/24 08:14:12;;;;;;;40.28;19.98;;;;;;;7.92;100.00;99725.81;5072522;28;20070;-82
2023/02/24 08:16:40;;;;;;;41.05;20.45;;;;;;;7.19;100.00;99602.78;5072157;28;20056;-79
2023/02/24 08:19:21;;;;;;;40.25;20.70;;;;;;;7.65;100.00;99667.34;5051769;28;20044;-79
2023/02/24 08:22:18;;;;;;;48.10;22.85;;;;;;;7.58;100.00;99644.84;5066722;28;20048;-81
2023/02/24 08:24:59;;;;;;;43.40;21.15;;;;;;;7.08;100.00;99536.59;5048712;28;20125;-80
2023/02/24 08:27:29;;;;;;;43.75;21.10;;;;;;;7.92;100.00;99667.81;5070045;28;20044;-80
2023/02/24 08:29:57;;;;;;;45.70;21.37;;;;;;;7.38;100.00;99565.91;5071405;28;20056;-78
2023/02/24 08:32:37;;;;;;;47.22;21.95;;;;;;;7.94;100.00;99665.13;5070340;28;20486;-80
2023/02/24 08:35:14;;;;;;;43.70;21.75;;;;;;;8.14;100.00;99704.59;5068736;28;20109;-80
2023/02/24 08:37:46;;;;;;;43.58;22.02;;;;;;;7.98;100.00;99677.25;5070780;28;20101;-81
2023/02/24 08:43:14;;;;;;;45.55;21.33;;;;;;;7.76;100.00;99598.31;5071124;28;20044;-81
2023/02/24 08:45:50;;;;;;;43.75;22.70;;;;;;;7.40;100.00;99519.25;5048003;28;20086;-80
2023/02/24 08:48:31;;;;;;;39.88;20.83;;;;;;;7.24;100.00;99489.34;5069694;28;20082;-80
2023/02/24 08:51:07;;;;;;;42.90;20.23;;;;;;;7.69;100.00;99568.78;5068561;28;20698;-80
2023/02/24 08:53:39;;;;;;;40.33;19.65;;;;;;;7.29;100.00;99487.31;5070301;28;20053;-81
2023/02/24 08:56:11;;;;;;;38.00;19.10;;;;;;;6.53;100.00;99365.50;5070725;28;20497;-81
2023/02/24 08:58:46;;;;;;;36.63;17.60;;;;;;;8.27;100.00;99670.53;5050695;28;20552;-81
2023/02/24 09:01:24;;;;;;;36.97;16.92;;;;;;;8.32;100.00;99663.31;5051075;28;20071;-80
2023/02/24 09:03:57;;;;;;;35.33;16.67;;;;;;;7.81;100.00;99580.50;5051382;28;20075;-81
2023/02/24 09:06:48;;;;;;;32.60;16.88;;;;;;;8.46;100.00;99663.47;5049438;28;20451;-78
2023/02/24 09:09:24;;;;;;;32.30;15.70;;;;;;;8.23;100.00;99632.06;5049747;28;20049;-82
2023/02/24 09:11:54;;;;;;;31.90;15.43;;;;;;;8.50;100.00;99657.09;5049951;28;20061;-81
2023/02/24 09:14:36;;;;;;;32.53;16.35;;;;;;;7.33;100.00;99473.09;5050940;28;20045;-79
2023/02/24 09:17:09;;;;;;;29.85;14.45;;;;;;;7.68;100.00;99524.91;5051911;28;20076;-81
2023/02/24 09:25:19;;;;;;;30.40;15.63;;;;;;;7.91;100.00;99555.41;5045744;28;20453;-80
2023/02/24 09:27:51;;;;;;;;;;;;;;;8.65;100.00;99661.63;5051428;28;20666;-82
2023/02/24 09:30:34;;;;;;;34.58;16.50;;;;;;;8.70;100.00;99653.44;5051302;28;19927;-82
2023/02/24 09:33:16;;;;;;;31.42;15.38;;;;;;;8.72;100.00;99647.16;5048065;28;20496;-81
2023/02/24 09:35:45;;;;;;;30.58;15.60;;;;;;;7.26;100.00;99385.63;5044081;28;20049;-82
2023/02/24 09:38:17;;;;;;;33.15;15.15;;;;;;;8.70;99.12;99611.22;5051156;28;20072;-79
2023/02/24 09:40:49;;;;;;;30.20;15.07;;;;;;;8.97;97.19;99635.34;5052198;28;20118;-80
2023/02/24 09:43:23;;;;;;;29.35;14.25;;;;;;;8.82;97.50;99586.81;5052170;28;20068;-80
2023/02/24 09:45:59;;;;;;;28.77;14.30;;;;;;;8.78;96.40;99559.75;5037946;28;20051;-80
2023/02/24 09:48:42;;;;;;;27.17;13.30;;;;;;;8.83;95.55;99575.31;5053620;28;20049;-81
2023/02/24 09:51:20;;;;;;;31.33;14.52;;;;;;;8.97;96.34;99601.03;5054786;28;20045;-81
2023/02/24 09:53:53;;;;;;;27.33;14.18;;;;;;;8.96;95.96;99629.22;5057176;28;20051;-81
2023/02/24 09:56:31;;;;;;;26.77;14.20;;;;;;;8.96;96.06;99617.81;5057735;28;20045;-80
2023/02/24 09:59:24;;;;;;;32.63;14.13;;;;;;;9.00;96.44;99614.03;5056748;28;20051;-81
2023/02/24 10:02:18;;;;;;;29.98;14.65;;;;;;;8.98;96.31;99610.63;5068415;28;20463;-80
2023/02/24 10:05:26;;;;;;;25.17;12.93;;;;;;;8.98;96.64;99605.34;5074165;28;20044;-81
2023/02/24 10:07:55;;;;;;;27.73;13.63;;;;;;;8.80;95.33;99575.50;5055896;28;20052;-80
2023/02/24 10:10:29;;;;;;;28.17;14.73;;;;;;;8.70;96.21;99539.94;5056505;28;20041;-81
2023/02/24 10:13:13;;;;;;;25.90;12.20;;;;;;;9.13;94.31;99583.41;5074547;28;20056;-80
2023/02/24 10:18:38;;;;;;;25.48;13.05;;;;;;;9.38;92.96;99573.22;5074052;28;20131;-80
2023/02/24 10:21:47;;;;;;;27.80;13.27;;;;;;;9.46;92.48;99575.41;5073642;28;20090;-80
2023/02/24 10:24:28;;;;;;;26.00;12.55;;;;;;;8.81;89.20;99449.66;5055018;28;20048;-82
2023/02/24 10:27:03;;;;;;;26.60;13.30;;;;;;;8.91;88.17;99472.81;5073250;28;20132;-81
2023/02/24 10:29:54;;;;;;;24.00;11.93;;;;;;;9.56;88.08;99560.78;5074075;28;20060;-81
2023/02/24 10:32:32;;;;;;;24.85;13.02;;;;;;;9.66;85.54;99558.44;5073317;28;20044;-80
2023/02/24 10:35:02;;;;;;;25.98;12.70;;;;;;;9.36;85.05;99485.25;5073410;28;20501;-81
2023/02/24 10:37:29;;;;;;;24.02;12.35;;;;;;;9.94;81.63;99560.38;5073365;28;20057;-81
2023/02/24 10:40:08;;;;;;;24.60;11.43;;;;;;;10.38;80.53;99549.91;5072674;28;20162;-80
2023/02/24 10:42:44;;;;;;;23.30;12.18;;;;;;;10.47;71.96;99536.09;5075124;28;20502;-79
2023/02/24 10:45:22;;;;;;;22.30;10.90;;;;;;;10.38;72.43;99534.88;5062730;28;20084;-81
2023/02/24 10:47:56;;;;;;;21.52;11.77;;;;;;;10.15;73.55;99533.53;5071340;28;20109;-82
2023/02/24 10:50:28;;;;;;;20.77;12.02;;;;;;;9.77;74.17;99489.94;5075612;28;20073;-80
2023/02/24 11:01:12;;;;;;;19.30;10.65;;;;;;;9.59;74.91;99494.53;5079625;28;20098;-82
2023/02/24 11:03:59;;;;;;;23.35;11.73;;;;;;;9.84;73.34;99513.31;5073231;28;20100;-82
2023/02/24 11:17:53;;;;;;;20.23;10.32;;;;;;;9.87;68.00;99434.75;5073510;28;20144;-80
2023/02/24 11:20:31;;;;;;;21.92;10.48;;;;;;;9.97;67.51;99470.28;5072902;28;20484;-80
2023/02/24 11:23:18;;;;;;;19.58;11.32;;;;;;;9.09;67.38;99310.72;5072734;28;20155;-82
2023/02/24 11:25:52;;;;;;;19.30;9.75;;;;;;;9.89;68.45;99430.22;5072297;28;20413;-82
2023/02/24 11:28:45;;;;;;;21.08;10.77;;;;;;;10.09;67.03;99465.09;5071824;28;20068;-80
2023/02/24 11:31:24;;;;;;;18.23;10.15;;;;;;;9.81;63.70;99431.53;5072754;28;20054;-81
2023/02/24 11:34:17;;;;;;;20.13;10.02;;;;;;;9.80;65.50;99458.03;5066513;28;20139;-82
2023/02/24 11:37:06;;;;;;;18.52;10.13;;;;;;;9.70;64.08;99448.97;5065406;28;20079;-80
2023/02/24 11:40:17;;;;;;;16.58;8.85;;;;;;;9.71;64.31;99448.03;5072518;28;20159;-82
2023/02/24 11:43:12;;;;;;;17.02;8.75;;;;;;;9.67;63.59;99441.22;5046063;28;20056;-81
2023/02/24 11:45:48;;;;;;;17.05;9.05;;;;;;;9.56;63.23;99433.91;5064272;28;20139;-82
2023/02/24 11:48:20;;;;;;;17.92;8.93;;;;;;;9.67;63.84;99430.63;5069224;28;20052;-83
2023/02/24 11:50:54;;;;;;;21.08;9.52;;;;;;;9.34;62.88;99352.38;5072258;28;20730;-81
2023/02/24 11:53:29;;;;;;;18.75;9.00;;;;;;;9.25;62.49;99339.72;5071694;28;20056;-80
2023/02/24 11:56:13;;;;;;;18.27;9.60;;;;;;;9.76;62.35;99415.06;5072242;28;20048;-82
2023/02/24 11:58:47;;;;;;;15.27;8.80;;;;;;;8.77;62.74;99257.13;5063706;28;20508;-81
2023/02/24 12:01:39;;;;;;;18.17;9.98;;;;;;;8.74;62.35;99241.47;5072586;28;20449;-81
2023/02/24 12:04:39;;;;;;;17.88;10.05;;;;;;;9.79;62.17;99406.97;5063489;28;20052;-80
2023/02/24 12:07:45;;;;;;;18.75;9.20;;;;;;;9.42;62.03;99310.53;5067397;28;20051;-81
2023/02/24 12:10:28;;;;;;;17.10;9.45;;;;;;;9.91;61.20;99389.53;5027299;28;20131;-80
2023/02/24 12:13:09;;;;;;;20.48;9.80;;;;;;;9.79;61.13;99383.16;5065719;28;20080;-80
2023/02/24 12:16:01;;;;;;;19.27;10.15;;;;;;;9.72;62.00;99381.00;5070986;28;20055;-81
2023/02/24 12:18:38;;;;;;;20.45;10.90;;;;;;;9.69;62.26;99370.59;5069068;28;20480;-80
2023/02/24 12:21:22;;;;;;;17.33;9.20;;;;;;;9.68;62.53;99368.91;5071195;28;20139;-81
2023/02/24 12:23:54;;;;;;;21.70;9.63;;;;;;;9.62;63.77;99364.81;5064456;28;20094;-81
2023/02/24 12:26:43;;;;;;;16.88;9.48;;;;;;;9.74;62.63;99368.53;5070880;28;20044;-83
2023/02/24 12:29:47;;;;;;;16.95;9.23;;;;;;;9.70;63.63;99359.09;5067698;28;20754;-81
2023/02/24 12:32:45;;;;;;;18.55;9.85;;;;;;;9.70;63.69;99356.44;5063991;28;20047;-80
2023/02/24 12:35:12;;;;;;;19.42;9.98;;;;;;;9.68;63.91;99351.25;5071680;28;20052;-80
2023/02/24 12:37:45;;;;;;;21.42;9.95;;;;;;;9.65;65.04;99345.28;5070744;28;20638;-80